Time;durP1;ratioP1;P1;durP2;ratioP2;P2;SDS_P1;SDS_P2;PMS_P1;PMS_P2;Temp;Humidity;BMP_temperature;BMP_pressure;BME280_temperature;BME280_humidity;BME280_pressure;Samples;Min_cycle;Max_cycle;Signal;HPM_P1;HPM_P2
2024/02/02 00:00:28;;;;;;;5.37;4.33;;;5.50;99.90;;;;;;2062413;28;20238;-65
2024/02/02 00:01:30;;;;;;;4.55;3.40;;;5.50;99.90;;;;;;2070585;28;20233;-65
2024/02/02 00:02:37;;;;;;;5.00;3.70;;;5.60;99.90;;;;;;2071036;28;20339;-65
2024/02/02 00:03:37;;;;;;;8.30;3.88;;;5.60;99.90;;;;;;2071515;28;20256;-65
2024/02/02 00:04:38;;;;;;;4.97;3.57;;;5.60;99.90;;;;;;2062605;28;20647;-65
2024/02/02 00:05:39;;;;;;;4.83;3.63;;;5.60;99.90;;;;;;2063505;28;20363;-65
2024/02/02 00:06:40;;;;;;;6.87;3.43;;;5.60;99.90;;;;;;2071583;28;20225;-65
2024/02/02 00:07:40;;;;;;;7.00;3.90;;;5.70;99.90;;;;;;2070636;28;20228;-65
2024/02/02 00:08:41;;;;;;;4.93;3.80;;;5.70;99.90;;;;;;2061787;28;20280;-64
2024/02/02 00:09:42;;;;;;;3.63;3.10;;;5.60;99.90;;;;;;2063223;28;20309;-65
2024/02/02 00:10:42;;;;;;;4.70;3.53;;;5.60;99.90;;;;;;2072377;28;20785;-65
2024/02/02 00:11:43;;;;;;;4.77;3.47;;;5.50;99.90;;;;;;2062542;28;20257;-64
2024/02/02 00:12:44;;;;;;;6.90;3.73;;;5.50;99.90;;;;;;2062740;28;20309;-65
2024/02/02 00:13:45;;;;;;;4.47;3.60;;;5.60;99.90;;;;;;2070814;28;20229;-63
2024/02/02 00:14:45;;;;;;;5.00;3.37;;;5.60;99.90;;;;;;2070504;28;20698;-63
2024/02/02 00:15:46;;;;;;;4.53;3.33;;;5.60;99.90;;;;;;2070884;28;20236;-64
2024/02/02 00:16:47;;;;;;;4.87;3.60;;;5.50;99.90;;;;;;2062985;28;20279;-64
2024/02/02 00:17:47;;;;;;;4.23;3.30;;;5.50;99.90;;;;;;2062690;28;20309;-64
2024/02/02 00:18:48;;;;;;;6.07;3.87;;;5.40;99.90;;;;;;2071482;28;20586;-64
2024/02/02 00:19:49;;;;;;;5.30;3.73;;;5.50;99.90;;;;;;2071232;28;20308;-64
2024/02/02 00:20:52;;;;;;;6.27;3.30;;;5.60;99.90;;;;;;2060978;28;20257;-64
2024/02/02 00:21:53;;;;;;;5.72;3.50;;;5.60;99.90;;;;;;2062663;28;20223;-65
2024/02/02 00:22:54;;;;;;;4.10;3.00;;;5.60;99.90;;;;;;2066517;28;20574;-64
2024/02/02 00:23:54;;;;;;;4.93;3.20;;;5.60;99.90;;;;;;2061692;28;20229;-65
2024/02/02 00:24:55;;;;;;;4.17;3.20;;;5.60;99.90;;;;;;2062830;28;20482;-64
2024/02/02 00:25:56;;;;;;;4.57;3.60;;;5.70;99.90;;;;;;2071338;28;20229;-65
2024/02/02 00:26:56;;;;;;;5.70;4.13;;;5.60;99.90;;;;;;2070907;28;20624;-65
2024/02/02 00:27:57;;;;;;;5.13;3.67;;;5.50;99.90;;;;;;2070764;28;20225;-65
2024/02/02 00:28:58;;;;;;;5.73;3.57;;;5.50;99.90;;;;;;2070597;28;20685;-65
2024/02/02 00:29:58;;;;;;;4.83;3.60;;;5.50;99.90;;;;;;2070662;28;20222;-65
2024/02/02 00:30:59;;;;;;;5.97;3.40;;;5.50;99.90;;;;;;2070605;28;20225;-65
2024/02/02 00:32:00;;;;;;;5.57;3.53;;;5.50;99.90;;;;;;2072223;28;20264;-64
2024/02/02 00:33:04;;;;;;;6.80;4.57;;;5.50;99.90;;;;;;2070543;28;20614;-64
2024/02/02 00:34:04;;;;;;;5.88;3.80;;;5.50;99.90;;;;;;2070886;28;20797;-65
2024/02/02 00:35:06;;;;;;;6.40;4.07;;;5.50;99.90;;;;;;2061659;28;20197;-63
2024/02/02 00:36:07;;;;;;;5.45;3.63;;;5.50;99.90;;;;;;2062476;28;20234;-64
2024/02/02 00:37:08;;;;;;;4.87;3.93;;;5.40;99.90;;;;;;2071122;28;20210;-66
2024/02/02 00:38:08;;;;;;;4.70;3.67;;;5.50;99.90;;;;;;2062663;28;20183;-64
2024/02/02 00:39:09;;;;;;;7.27;3.27;;;5.50;99.90;;;;;;2062628;28;20677;-64
2024/02/02 00:40:10;;;;;;;5.07;3.63;;;5.50;99.90;;;;;;2071317;28;20203;-64
2024/02/02 00:41:11;;;;;;;6.65;3.72;;;5.50;99.90;;;;;;2070814;28;20186;-65
2024/02/02 00:42:11;;;;;;;6.63;4.13;;;5.50;99.90;;;;;;2061981;28;20210;-64
2024/02/02 00:43:12;;;;;;;6.53;4.23;;;5.40;99.90;;;;;;2062405;28;20269;-65
2024/02/02 00:44:13;;;;;;;4.63;3.50;;;5.40;99.90;;;;;;2070937;28;20671;-65
2024/02/02 00:45:13;;;;;;;5.53;4.10;;;5.50;99.90;;;;;;2062453;28;20202;-64
2024/02/02 00:46:14;;;;;;;7.10;4.43;;;5.60;99.90;;;;;;2058096;28;20196;-65
2024/02/02 00:47:15;;;;;;;4.50;3.17;;;5.60;99.90;;;;;;2066647;28;20190;-64
2024/02/02 00:48:16;;;;;;;6.83;4.30;;;5.50;99.90;;;;;;2067236;28;20196;-64
2024/02/02 00:49:17;;;;;;;6.45;4.35;;;5.50;99.90;;;;;;2062481;28;20289;-65
2024/02/02 00:50:17;;;;;;;5.70;4.47;;;5.50;99.90;;;;;;2054450;28;20195;-64
2024/02/02 00:51:18;;;;;;;5.70;3.90;;;5.50;99.90;;;;;;2054823;28;20274;-65
2024/02/02 00:52:19;;;;;;;7.07;4.23;;;5.50;99.90;;;;;;2050344;28;20269;-65
2024/02/02 00:53:20;;;;;;;6.13;4.27;;;5.60;99.90;;;;;;2054344;28;20226;-64
2024/02/02 00:54:20;;;;;;;6.07;4.77;;;5.70;99.90;;;;;;2054354;28;20219;-64
2024/02/02 00:55:21;;;;;;;6.70;4.50;;;5.70;99.90;;;;;;2062311;28;20304;-65
2024/02/02 00:56:23;;;;;;;6.10;4.20;;;5.70;99.90;;;;;;2062494;28;20862;-64
2024/02/02 00:57:24;;;;;;;7.07;4.22;;;5.70;99.90;;;;;;2046591;28;20235;-65
2024/02/02 00:58:25;;;;;;;6.70;4.17;;;5.70;99.90;;;;;;2046120;28;20231;-65
2024/02/02 00:59:25;;;;;;;6.07;4.03;;;5.70;99.90;;;;;;2063097;28;20229;-65
2024/02/02 01:00:26;;;;;;;7.17;4.50;;;5.70;99.90;;;;;;2063196;28;20250;-65
2024/02/02 01:01:27;;;;;;;7.47;4.60;;;5.70;99.90;;;;;;2063444;28;20316;-65
2024/02/02 01:02:27;;;;;;;5.70;3.43;;;5.70;99.90;;;;;;2071567;28;20676;-65
2024/02/02 01:03:28;;;;;;;5.40;3.43;;;5.70;99.90;;;;;;2071096;28;20229;-64
2024/02/02 01:04:29;;;;;;;4.03;2.77;;;5.70;99.90;;;;;;2069903;28;20779;-65
2024/02/02 01:05:31;;;;;;;3.20;2.77;;;5.70;99.90;;;;;;2070397;28;20240;-65
2024/02/02 01:06:32;;;;;;;3.75;2.83;;;5.70;99.90;;;;;;2071099;28;20253;-65
2024/02/02 01:07:33;;;;;;;3.67;2.83;;;5.70;99.90;;;;;;2071249;28;20224;-65
2024/02/02 01:08:34;;;;;;;3.63;2.90;;;5.60;99.90;;;;;;2062432;28;20250;-63
2024/02/02 01:09:36;;;;;;;3.70;2.50;;;5.60;99.90;;;;;;2062558;28;20237;-65
2024/02/02 01:10:40;;;;;;;5.43;2.83;;;5.40;99.90;;;;;;2061740;28;20605;-65
2024/02/02 01:11:41;;;;;;;5.18;3.13;;;5.30;99.90;;;;;;2062813;28;20234;-64
2024/02/02 01:12:45;;;;;;;3.20;2.40;;;5.30;99.90;;;;;;2071070;28;20304;-63
2024/02/02 01:13:45;;;;;;;4.15;3.22;;;5.10;99.90;;;;;;2058478;28;20690;-64
2024/02/02 01:14:46;;;;;;;4.50;2.87;;;5.00;99.90;;;;;;2062062;28;20232;-64
2024/02/02 01:15:47;;;;;;;3.13;2.40;;;5.00;99.90;;;;;;2071106;28;20291;-64
2024/02/02 01:16:48;;;;;;;4.37;3.33;;;4.90;99.90;;;;;;2061891;28;20709;-66
2024/02/02 01:17:48;;;;;;;5.03;3.00;;;4.90;99.90;;;;;;2055055;28;20230;-65
2024/02/02 01:18:49;;;;;;;7.77;3.83;;;4.90;99.90;;;;;;2062126;28;20240;-65
2024/02/02 01:19:50;;;;;;;6.10;3.33;;;4.90;99.90;;;;;;2070993;28;20230;-65
2024/02/02 01:20:50;;;;;;;4.77;3.27;;;4.90;99.90;;;;;;2071022;28;20221;-65
2024/02/02 01:21:51;;;;;;;5.57;3.43;;;4.90;99.90;;;;;;2071769;28;20260;-66
2024/02/02 01:22:52;;;;;;;5.90;4.20;;;5.00;99.90;;;;;;2070764;28;20227;-65
2024/02/02 01:23:52;;;;;;;4.77;3.17;;;5.00;99.90;;;;;;2069264;28;20258;-64
2024/02/02 01:24:53;;;;;;;4.93;3.10;;;4.90;99.90;;;;;;2070377;28;20217;-64
2024/02/02 01:25:54;;;;;;;4.67;3.50;;;4.90;99.90;;;;;;2061491;28;20222;-64
2024/02/02 01:26:55;;;;;;;4.83;3.60;;;4.90;99.90;;;;;;2062883;28;20234;-64
2024/02/02 01:27:57;;;;;;;4.80;3.03;;;4.90;99.90;;;;;;2076445;28;20229;-64
2024/02/02 01:28:57;;;;;;;4.82;3.60;;;4.80;99.90;;;;;;2067321;28;20240;-64
2024/02/02 01:29:58;;;;;;;5.27;3.60;;;4.80;99.90;;;;;;2059578;28;20309;-64
2024/02/02 01:30:59;;;;;;;5.17;4.10;;;4.80;99.90;;;;;;2051875;28;20240;-64
2024/02/02 01:31:59;;;;;;;4.63;3.23;;;4.80;99.90;;;;;;2059936;28;20238;-65
2024/02/02 01:33:00;;;;;;;5.13;3.00;;;4.90;99.90;;;;;;2064931;28;20234;-65
2024/02/02 01:34:01;;;;;;;3.53;2.73;;;4.80;99.90;;;;;;2052866;28;20285;-63
2024/02/02 01:35:03;;;;;;;5.00;2.93;;;4.80;99.90;;;;;;2065757;28;20224;-63
2024/02/02 01:36:03;;;;;;;4.18;2.85;;;4.80;99.90;;;;;;2073954;28;20192;-64
2024/02/02 01:37:04;;;;;;;4.37;2.90;;;4.70;99.90;;;;;;2070748;28;20220;-63
2024/02/02 01:38:05;;;;;;;3.30;2.20;;;4.70;99.90;;;;;;2070388;28;20181;-64
2024/02/02 01:39:10;;;;;;;4.07;2.80;;;4.60;99.90;;;;;;2070298;28;20204;-64
2024/02/02 01:40:14;;;;;;;4.13;3.22;;;4.60;99.90;;;;;;2071635;28;20272;-64
2024/02/02 01:41:15;;;;;;;3.67;2.50;;;4.60;99.90;;;;;;2061579;28;20241;-64
2024/02/02 01:42:16;;;;;;;4.80;3.23;;;4.50;99.90;;;;;;2054408;28;20696;-64
2024/02/02 01:43:16;;;;;;;4.90;3.37;;;4.50;99.90;;;;;;2058865;28;20225;-63
2024/02/02 01:44:17;;;;;;;3.60;2.70;;;4.50;99.90;;;;;;2069653;28;20189;-64
2024/02/02 01:45:18;;;;;;;4.63;3.00;;;4.50;99.90;;;;;;2070576;28;20709;-64
2024/02/02 01:46:18;;;;;;;6.07;3.20;;;4.40;99.90;;;;;;2061921;28;20197;-64
2024/02/02 01:47:19;;;;;;;3.93;3.00;;;4.40;99.90;;;;;;2053988;28;20190;-64
2024/02/02 01:48:20;;;;;;;4.73;3.30;;;4.30;99.90;;;;;;2054060;28;20688;-64
2024/02/02 01:49:21;;;;;;;4.30;3.00;;;4.20;99.90;;;;;;2071361;28;20322;-63
2024/02/02 01:50:22;;;;;;;3.87;3.03;;;4.10;99.90;;;;;;2070557;28;20505;-64
2024/02/02 01:51:22;;;;;;;4.03;3.10;;;4.10;99.90;;;;;;2071058;28;20757;-64
2024/02/02 01:52:23;;;;;;;4.10;2.70;;;4.10;99.90;;;;;;2070555;28;20229;-64
2024/02/02 01:53:25;;;;;;;3.67;2.73;;;4.10;99.90;;;;;;2062054;28;20229;-64
2024/02/02 01:54:27;;;;;;;5.43;3.45;;;4.00;99.90;;;;;;2061661;28;20238;-64
2024/02/02 01:55:28;;;;;;;4.55;3.15;;;4.00;99.90;;;;;;2062648;28;20237;-64
2024/02/02 01:56:29;;;;;;;5.80;3.80;;;4.00;99.90;;;;;;2061754;28;20234;-65
2024/02/02 01:57:29;;;;;;;5.50;3.92;;;4.00;99.90;;;;;;2053938;28;20338;-64
2024/02/02 01:58:30;;;;;;;5.77;3.63;;;4.00;99.90;;;;;;2053716;28;20321;-64
2024/02/02 01:59:32;;;;;;;6.03;3.70;;;3.90;99.90;;;;;;2061894;28;20224;-64
2024/02/02 02:00:32;;;;;;;6.53;3.85;;;4.00;99.90;;;;;;2070558;28;20721;-65
2024/02/02 02:01:33;;;;;;;5.20;3.70;;;3.90;99.90;;;;;;2060271;28;20232;-64
2024/02/02 02:02:34;;;;;;;5.63;3.87;;;3.80;99.90;;;;;;2060804;28;20282;-64
2024/02/02 02:03:34;;;;;;;5.97;4.10;;;3.70;99.90;;;;;;2060987;28;20242;-65
2024/02/02 02:04:35;;;;;;;5.03;3.43;;;3.70;99.90;;;;;;2061128;28;20747;-64
2024/02/02 02:05:36;;;;;;;4.17;3.40;;;3.70;99.90;;;;;;2069129;28;20275;-64
2024/02/02 02:06:37;;;;;;;5.77;3.50;;;3.70;99.90;;;;;;2057722;28;20244;-64
2024/02/02 02:07:43;;;;;;;4.97;3.63;;;3.70;99.90;;;;;;2052185;28;20261;-64
2024/02/02 02:08:46;;;;;;;6.53;3.70;;;3.70;99.90;;;;;;2057308;28;20233;-65
2024/02/02 02:09:46;;;;;;;6.78;4.63;;;3.60;99.90;;;;;;2061066;28;20315;-64
2024/02/02 02:10:47;;;;;;;5.40;3.67;;;3.60;99.90;;;;;;2052561;28;20223;-65
2024/02/02 02:11:48;;;;;;;5.80;3.90;;;3.60;99.90;;;;;;2061310;28;20233;-64
2024/02/02 02:12:50;;;;;;;4.97;3.53;;;3.50;99.90;;;;;;2061274;28;20235;-65
2024/02/02 02:13:51;;;;;;;4.90;3.40;;;3.50;99.90;;;;;;2060037;28;20225;-64
2024/02/02 02:14:52;;;;;;;5.93;3.95;;;3.50;99.90;;;;;;2069367;28;20707;-64
2024/02/02 02:15:54;;;;;;;6.03;3.97;;;3.50;99.90;;;;;;2053361;28;20235;-65
2024/02/02 02:16:54;;;;;;;6.88;4.28;;;3.50;99.90;;;;;;2053523;28;20325;-64
2024/02/02 02:17:55;;;;;;;8.20;4.13;;;3.40;99.90;;;;;;2069564;28;20221;-64
2024/02/02 02:18:56;;;;;;;5.30;4.07;;;3.40;99.90;;;;;;2069740;28;20357;-64
2024/02/02 02:19:58;;;;;;;6.60;3.80;;;3.40;99.90;;;;;;2070385;28;20316;-64
2024/02/02 02:21:20;;;;;;;5.80;4.32;;;3.40;99.90;;;;;;2060841;28;20804;-64
2024/02/02 02:22:21;;;;;;;6.05;4.18;;;3.40;99.90;;;;;;2059062;28;20248;-64
2024/02/02 02:23:22;;;;;;;8.47;5.10;;;3.40;99.90;;;;;;2057528;28;20236;-64
2024/02/02 02:24:22;;;;;;;6.13;4.20;;;3.40;99.90;;;;;;2051900;28;20260;-65
2024/02/02 02:25:23;;;;;;;8.83;4.90;;;3.40;99.90;;;;;;2059746;28;20729;-64
2024/02/02 02:26:25;;;;;;;8.73;4.97;;;3.30;99.90;;;;;;2067094;28;20339;-64
2024/02/02 02:27:25;;;;;;;5.97;4.30;;;3.30;99.90;;;;;;2070472;28;20236;-64
2024/02/02 02:28:26;;;;;;;7.97;5.10;;;3.40;99.90;;;;;;2071426;28;20260;-64
2024/02/02 02:29:27;;;;;;;9.03;5.57;;;3.50;99.90;;;;;;2069321;28;20286;-65
2024/02/02 02:30:28;;;;;;;9.70;5.57;;;3.40;99.90;;;;;;2068620;28;20220;-64
2024/02/02 02:31:29;;;;;;;11.37;6.00;;;3.40;99.90;;;;;;2069750;28;20236;-65
2024/02/02 02:32:30;;;;;;;14.65;7.32;;;3.40;99.90;;;;;;2069652;28;21017;-64
2024/02/02 02:33:31;;;;;;;14.07;7.57;;;3.50;99.90;;;;;;2066635;28;20239;-64
2024/02/02 02:34:31;;;;;;;21.45;8.05;;;3.50;99.90;;;;;;2067538;28;20225;-64
2024/02/02 02:35:32;;;;;;;23.87;9.97;;;3.60;99.90;;;;;;2052840;28;20267;-64
2024/02/02 02:36:33;;;;;;;22.03;9.80;;;3.60;99.90;;;;;;2053430;28;20401;-64
2024/02/02 02:37:33;;;;;;;12.90;7.60;;;3.70;99.90;;;;;;2069581;28;20701;-64
2024/02/02 02:38:35;;;;;;;14.17;7.73;;;3.80;99.90;;;;;;2070135;28;20233;-64
2024/02/02 02:39:36;;;;;;;15.60;8.07;;;3.80;99.90;;;;;;2061345;28;20245;-65
2024/02/02 02:40:36;;;;;;;12.90;7.07;;;3.80;99.90;;;;;;2053106;28;20267;-65
2024/02/02 02:41:37;;;;;;;11.13;6.10;;;3.80;99.90;;;;;;2062453;28;20229;-65
2024/02/02 02:42:38;;;;;;;10.83;6.57;;;3.70;99.90;;;;;;2067908;28;20714;-64
2024/02/02 02:43:39;;;;;;;9.20;5.30;;;3.70;99.90;;;;;;2060640;28;20225;-65
2024/02/02 02:44:40;;;;;;;9.25;5.78;;;3.80;99.90;;;;;;2051967;28;20292;-64
2024/02/02 02:45:41;;;;;;;9.40;5.90;;;3.90;99.90;;;;;;2052589;28;20375;-64
2024/02/02 02:46:42;;;;;;;7.85;5.50;;;3.80;99.90;;;;;;2052779;28;20744;-65
2024/02/02 02:47:43;;;;;;;10.18;5.70;;;3.90;99.90;;;;;;2047750;28;20260;-65
2024/02/02 02:48:44;;;;;;;11.33;6.23;;;3.90;99.90;;;;;;2042192;28;20750;-64
2024/02/02 02:49:45;;;;;;;9.60;5.55;;;3.80;99.90;;;;;;2042797;28;20227;-65
2024/02/02 02:50:46;;;;;;;10.93;5.87;;;3.90;99.90;;;;;;2043732;28;20246;-65
2024/02/02 02:51:46;;;;;;;9.40;5.97;;;3.90;99.90;;;;;;2058178;28;20231;-65
2024/02/02 02:52:47;;;;;;;10.43;5.60;;;3.80;99.90;;;;;;2060358;28;20237;-65
2024/02/02 02:53:48;;;;;;;7.87;5.57;;;3.80;99.90;;;;;;2053670;28;20234;-63
2024/02/02 02:54:49;;;;;;;9.77;5.67;;;3.80;99.90;;;;;;2052875;28;20226;-65
2024/02/02 02:55:50;;;;;;;9.57;5.77;;;3.80;99.90;;;;;;2061518;28;20298;-65
2024/02/02 02:56:50;;;;;;;9.90;5.80;;;3.80;99.90;;;;;;2052240;28;20703;-65
2024/02/02 02:57:53;;;;;;;8.17;5.67;;;3.80;99.90;;;;;;2050844;28;20218;-64
2024/02/02 02:58:53;;;;;;;9.77;5.40;;;3.80;99.90;;;;;;2070526;28;20630;-65
2024/02/02 02:59:54;;;;;;;10.67;5.80;;;3.80;99.90;;;;;;2069108;28;20224;-65
2024/02/02 03:00:55;;;;;;;7.73;5.10;;;3.80;99.90;;;;;;2071323;28;20619;-64
2024/02/02 03:01:56;;;;;;;6.83;4.47;;;3.80;99.90;;;;;;2072612;28;20228;-64
2024/02/02 03:02:58;;;;;;;8.70;5.43;;;3.80;99.90;;;;;;2061739;28;20323;-64
2024/02/02 03:03:59;;;;;;;7.85;4.82;;;3.70;99.90;;;;;;2061799;28;20237;-64
2024/02/02 03:05:00;;;;;;;9.63;5.60;;;3.70;99.90;;;;;;2069072;28;20228;-64
2024/02/02 03:06:00;;;;;;;8.53;5.30;;;3.70;99.90;;;;;;2070395;28;20576;-64
2024/02/02 03:07:02;;;;;;;9.23;5.33;;;3.70;99.90;;;;;;2061343;28;20302;-64
2024/02/02 03:08:05;;;;;;;9.25;5.55;;;3.70;99.90;;;;;;2061773;28;20201;-64
2024/02/02 03:09:06;;;;;;;11.77;6.45;;;3.70;99.90;;;;;;2061820;28;20189;-64
2024/02/02 03:10:08;;;;;;;10.40;5.70;;;3.80;99.90;;;;;;2053813;28;20672;-64
2024/02/02 03:11:09;;;;;;;9.75;5.72;;;3.80;99.90;;;;;;2054461;28;20190;-64
2024/02/02 03:12:10;;;;;;;9.43;5.77;;;3.90;99.90;;;;;;2062212;28;20189;-64
2024/02/02 03:13:10;;;;;;;8.80;5.73;;;3.80;99.90;;;;;;2070469;28;20200;-64
2024/02/02 03:14:11;;;;;;;9.03;5.10;;;3.80;99.90;;;;;;2070514;28;20267;-64
2024/02/02 03:15:12;;;;;;;10.07;5.47;;;3.80;99.90;;;;;;2069222;28;20232;-64
2024/02/02 03:16:13;;;;;;;11.03;5.33;;;3.70;99.90;;;;;;2070455;28;20268;-64
2024/02/02 03:17:13;;;;;;;8.30;4.90;;;3.70;99.90;;;;;;2062067;28;20227;-64
2024/02/02 03:18:14;;;;;;;10.37;6.40;;;3.70;99.90;;;;;;2061994;28;20197;-63
2024/02/02 03:19:15;;;;;;;9.70;5.97;;;3.80;99.90;;;;;;2070785;28;20283;-64
2024/02/02 03:20:16;;;;;;;7.63;4.47;;;3.70;99.90;;;;;;2072088;28;20188;-64
2024/02/02 03:21:16;;;;;;;5.97;4.07;;;3.70;99.90;;;;;;2069182;28;20246;-63
2024/02/02 03:22:17;;;;;;;8.67;4.97;;;3.70;99.90;;;;;;2070435;28;20530;-64
2024/02/02 03:23:18;;;;;;;8.30;4.43;;;3.60;99.90;;;;;;2062730;28;20186;-65
2024/02/02 03:24:18;;;;;;;7.20;4.50;;;3.50;99.90;;;;;;2061701;28;20196;-63
2024/02/02 03:25:19;;;;;;;7.50;5.20;;;3.40;99.90;;;;;;2070085;28;20239;-64
2024/02/02 03:26:20;;;;;;;13.57;5.30;;;3.30;99.90;;;;;;2072551;28;20238;-63
2024/02/02 03:27:21;;;;;;;8.37;4.87;;;3.20;99.90;;;;;;2061036;28;20754;-63
2024/02/02 03:28:21;;;;;;;7.70;4.67;;;3.20;99.90;;;;;;2053658;28;20269;-64
2024/02/02 03:29:22;;;;;;;8.63;4.80;;;3.20;99.90;;;;;;2062277;28;20233;-63
2024/02/02 03:30:23;;;;;;;6.30;4.37;;;3.20;99.90;;;;;;2062672;28;20232;-63
2024/02/02 03:31:24;;;;;;;11.18;5.10;;;3.30;99.90;;;;;;2062326;28;20801;-63
2024/02/02 03:32:25;;;;;;;9.50;5.43;;;3.30;99.90;;;;;;2070483;28;20236;-63
2024/02/02 03:33:25;;;;;;;7.83;4.90;;;3.30;99.90;;;;;;2069954;28;20734;-63
2024/02/02 03:34:26;;;;;;;6.67;4.83;;;3.40;99.90;;;;;;2070664;28;20232;-64
2024/02/02 03:35:27;;;;;;;6.33;4.40;;;3.50;99.90;;;;;;2070173;28;20259;-64
2024/02/02 03:36:28;;;;;;;10.18;4.95;;;3.60;99.90;;;;;;2070829;28;20892;-65
2024/02/02 03:37:29;;;;;;;9.30;4.77;;;3.60;99.90;;;;;;2061759;28;20234;-64
2024/02/02 03:38:29;;;;;;;9.73;4.20;;;3.60;99.90;;;;;;2062011;28;20684;-64
2024/02/02 03:39:32;;;;;;;6.77;4.17;;;3.60;99.90;;;;;;2072170;28;20241;-65
2024/02/02 03:40:33;;;;;;;8.60;5.30;;;3.50;99.90;;;;;;2062263;28;20296;-65
2024/02/02 03:41:34;;;;;;;7.80;4.37;;;3.50;99.90;;;;;;2063053;28;20316;-65
2024/02/02 03:42:34;;;;;;;6.83;4.10;;;3.50;99.90;;;;;;2058213;28;20230;-64
2024/02/02 03:43:35;;;;;;;8.90;4.50;;;3.60;99.90;;;;;;2064657;28;20590;-64
2024/02/02 03:44:37;;;;;;;7.97;4.47;;;3.50;99.90;;;;;;2072818;28;20307;-65
2024/02/02 03:45:37;;;;;;;6.25;3.65;;;3.60;99.90;;;;;;2069373;28;20739;-65
2024/02/02 03:46:38;;;;;;;8.17;5.47;;;3.70;99.90;;;;;;2067698;28;20267;-65
2024/02/02 03:47:39;;;;;;;7.97;4.87;;;3.70;99.90;;;;;;2072038;28;20256;-65
2024/02/02 03:48:39;;;;;;;8.03;4.47;;;3.80;99.90;;;;;;2070473;28;20259;-65
2024/02/02 03:49:40;;;;;;;5.70;4.20;;;3.80;99.90;;;;;;2065381;28;20254;-65
2024/02/02 03:50:41;;;;;;;6.33;4.57;;;3.80;99.90;;;;;;2069209;28;20312;-65
2024/02/02 03:51:41;;;;;;;6.27;4.57;;;3.90;99.90;;;;;;2061645;28;20257;-65
2024/02/02 03:52:42;;;;;;;7.57;4.77;;;3.90;99.90;;;;;;2045016;28;20273;-65
2024/02/02 03:53:43;;;;;;;6.10;4.47;;;4.00;99.90;;;;;;2053976;28;20225;-64
2024/02/02 03:54:43;;;;;;;4.80;3.90;;;4.00;99.90;;;;;;2069777;28;20885;-65
2024/02/02 03:55:44;;;;;;;6.37;4.47;;;4.10;99.90;;;;;;2069916;28;20320;-65
2024/02/02 03:56:45;;;;;;;8.07;4.83;;;4.10;99.90;;;;;;2068488;28;20380;-64
2024/02/02 03:57:46;;;;;;;6.53;4.53;;;4.10;99.90;;;;;;2067875;28;20652;-65
2024/02/02 03:58:46;;;;;;;5.37;3.70;;;4.10;99.90;;;;;;2068140;28;20237;-65
2024/02/02 03:59:47;;;;;;;6.80;4.33;;;4.10;99.90;;;;;;2069695;28;20220;-65
2024/02/02 04:00:48;;;;;;;7.27;5.13;;;4.20;99.90;;;;;;2069437;28;20218;-65
2024/02/02 04:01:48;;;;;;;6.93;4.43;;;4.20;99.90;;;;;;2070131;28;20229;-65
2024/02/02 04:02:52;;;;;;;5.93;4.07;;;4.20;99.90;;;;;;2070237;28;20217;-65
2024/02/02 04:03:53;;;;;;;6.43;4.13;;;4.20;99.90;;;;;;2070026;28;20770;-63
2024/02/02 04:04:53;;;;;;;6.50;4.80;;;4.30;99.90;;;;;;2069696;28;20300;-65
2024/02/02 04:05:54;;;;;;;8.87;4.83;;;4.40;99.90;;;;;;2071746;28;20305;-64
2024/02/02 04:06:55;;;;;;;6.57;4.20;;;4.40;99.90;;;;;;2074592;28;20224;-64
2024/02/02 04:07:55;;;;;;;6.77;4.37;;;4.40;99.90;;;;;;2073060;28;20716;-64
2024/02/02 04:08:56;;;;;;;7.60;4.40;;;4.50;99.90;;;;;;2066796;28;20315;-64
2024/02/02 04:09:57;;;;;;;5.67;4.13;;;4.50;99.90;;;;;;2065115;28;20254;-64
2024/02/02 04:10:57;;;;;;;5.77;4.10;;;4.50;99.90;;;;;;2065493;28;20710;-64
2024/02/02 04:11:58;;;;;;;4.93;3.57;;;4.50;99.90;;;;;;2063892;28;20226;-65
2024/02/02 04:13:01;;;;;;;6.67;4.73;;;4.50;99.90;;;;;;2062497;28;20694;-65
2024/02/02 04:14:02;;;;;;;5.85;4.25;;;4.50;99.90;;;;;;2061382;28;20209;-65
2024/02/02 04:15:03;;;;;;;6.30;3.77;;;4.30;99.90;;;;;;2070390;28;20642;-65
2024/02/02 04:16:04;;;;;;;4.15;3.05;;;4.30;99.90;;;;;;2062458;28;20194;-64
2024/02/02 04:17:05;;;;;;;4.65;3.50;;;4.20;99.90;;;;;;2054999;28;20224;-65
2024/02/02 04:18:06;;;;;;;4.97;3.47;;;4.20;99.90;;;;;;2062043;28;20174;-64
2024/02/02 04:19:08;;;;;;;6.00;3.80;;;4.20;99.90;;;;;;2062504;28;20194;-65
2024/02/02 04:20:09;;;;;;;5.35;3.55;;;4.10;99.90;;;;;;2062022;28;20179;-65
2024/02/02 04:21:10;;;;;;;7.05;4.15;;;4.20;99.90;;;;;;2068959;28;20301;-65
2024/02/02 04:22:11;;;;;;;7.20;4.40;;;4.20;99.90;;;;;;2070956;28;20739;-65
2024/02/02 04:23:11;;;;;;;6.17;4.10;;;4.10;99.90;;;;;;2070535;28;20188;-65
2024/02/02 04:24:12;;;;;;;4.30;3.27;;;4.10;99.90;;;;;;2068639;28;20560;-65
2024/02/02 04:25:13;;;;;;;4.80;3.30;;;4.10;99.90;;;;;;2070656;28;20185;-65
2024/02/02 04:26:13;;;;;;;4.00;2.90;;;4.20;99.90;;;;;;2061717;28;20210;-65
2024/02/02 04:27:14;;;;;;;4.97;3.33;;;4.20;99.90;;;;;;2063186;28;20328;-65
2024/02/02 04:28:15;;;;;;;5.43;3.63;;;4.20;99.90;;;;;;2063314;28;20250;-65
2024/02/02 04:29:15;;;;;;;5.37;3.37;;;4.20;99.90;;;;;;2061823;28;20707;-65
2024/02/02 04:30:17;;;;;;;5.97;3.70;;;4.20;99.90;;;;;;2068772;28;20213;-65
2024/02/02 04:31:17;;;;;;;7.82;4.60;;;4.20;99.90;;;;;;2053919;28;20222;-65
2024/02/02 04:32:18;;;;;;;7.67;4.00;;;4.30;99.90;;;;;;2054339;28;20565;-65
2024/02/02 04:33:19;;;;;;;5.97;3.67;;;4.30;99.90;;;;;;2071542;28;20347;-64
2024/02/02 04:34:19;;;;;;;5.97;3.83;;;4.40;99.90;;;;;;2067554;28;20201;-64
2024/02/02 04:35:20;;;;;;;6.83;3.90;;;4.40;99.90;;;;;;2070192;28;20206;-64
2024/02/02 04:36:21;;;;;;;6.47;3.40;;;4.30;99.90;;;;;;2069421;28;20767;-65
2024/02/02 04:37:21;;;;;;;5.03;3.37;;;4.40;99.90;;;;;;2072764;28;20250;-65
2024/02/02 04:38:22;;;;;;;5.37;3.73;;;4.40;99.90;;;;;;2070339;28;20282;-65
2024/02/02 04:39:23;;;;;;;10.47;6.57;;;4.40;99.90;;;;;;2071055;28;20583;-65
2024/02/02 04:40:23;;;;;;;8.33;6.57;;;4.30;99.90;;;;;;2061669;28;20317;-65
2024/02/02 04:41:25;;;;;;;10.07;6.63;;;4.20;99.90;;;;;;2062033;28;20230;-65
2024/02/02 04:42:25;;;;;;;11.38;7.75;;;4.20;99.90;;;;;;2071462;28;20737;-64
2024/02/02 04:43:26;;;;;;;10.33;7.77;;;4.10;99.90;;;;;;2062069;28;20234;-65
2024/02/02 04:44:27;;;;;;;7.50;5.00;;;4.00;99.90;;;;;;2062231;28;20293;-65
2024/02/02 04:45:28;;;;;;;6.60;4.40;;;4.00;99.90;;;;;;2061592;28;20244;-65
2024/02/02 04:46:28;;;;;;;6.40;4.07;;;3.90;99.90;;;;;;2062710;28;20732;-65
2024/02/02 04:47:29;;;;;;;8.53;4.40;;;3.90;99.90;;;;;;2068919;28;20294;-65
2024/02/02 04:48:30;;;;;;;7.30;4.63;;;3.90;99.90;;;;;;2070227;28;20243;-65
2024/02/02 04:49:30;;;;;;;7.47;4.43;;;4.00;99.90;;;;;;2070630;28;20651;-65
2024/02/02 04:50:31;;;;;;;6.30;4.23;;;4.00;99.90;;;;;;2071869;28;20230;-65
2024/02/02 04:51:32;;;;;;;4.88;3.53;;;3.90;99.90;;;;;;2061492;28;20723;-65
2024/02/02 04:52:33;;;;;;;5.93;3.93;;;3.90;99.90;;;;;;2054806;28;20269;-66
2024/02/02 04:53:33;;;;;;;5.83;3.47;;;4.00;99.90;;;;;;2061600;28;20244;-66
2024/02/02 04:54:34;;;;;;;5.73;3.97;;;4.10;99.90;;;;;;2061115;28;20315;-66
2024/02/02 04:55:35;;;;;;;5.83;4.00;;;4.00;99.90;;;;;;2062876;28;20238;-65
2024/02/02 04:56:36;;;;;;;6.07;4.63;;;4.00;99.90;;;;;;2070470;28;20245;-65
2024/02/02 04:57:37;;;;;;;5.83;4.13;;;4.00;99.90;;;;;;2070629;28;20275;-65
2024/02/02 04:58:37;;;;;;;7.57;4.63;;;4.10;99.90;;;;;;2061848;28;20240;-66
2024/02/02 04:59:38;;;;;;;5.80;3.70;;;4.10;99.90;;;;;;2060051;28;20309;-65
2024/02/02 05:00:39;;;;;;;7.60;4.50;;;4.10;99.90;;;;;;2070231;28;20311;-65
2024/02/02 05:01:40;;;;;;;7.63;4.32;;;4.00;99.90;;;;;;2070808;28;20232;-65
2024/02/02 05:02:41;;;;;;;6.27;3.90;;;4.10;99.90;;;;;;2070050;28;20253;-65
2024/02/02 05:03:41;;;;;;;7.77;4.30;;;4.20;99.90;;;;;;2062319;28;20226;-65
2024/02/02 05:04:42;;;;;;;7.23;5.00;;;4.20;99.90;;;;;;2061481;28;20237;-65
2024/02/02 05:05:43;;;;;;;5.77;3.80;;;4.10;99.90;;;;;;2069124;28;20237;-65
2024/02/02 05:06:43;;;;;;;6.07;4.23;;;4.10;99.90;;;;;;2061246;28;20230;-65
2024/02/02 05:07:44;;;;;;;6.43;4.57;;;4.10;99.90;;;;;;2061645;28;20226;-65
2024/02/02 05:08:45;;;;;;;5.77;4.00;;;4.00;99.90;;;;;;2070836;28;20240;-65
2024/02/02 05:09:45;;;;;;;6.93;4.53;;;4.00;99.90;;;;;;2061432;28;20226;-65
2024/02/02 05:10:46;;;;;;;6.80;5.00;;;4.00;99.90;;;;;;2053447;28;20235;-65
2024/02/02 05:11:47;;;;;;;5.27;4.10;;;4.00;99.90;;;;;;2061728;28;20268;-65
2024/02/02 05:12:47;;;;;;;5.70;3.90;;;4.00;99.90;;;;;;2060991;28;20261;-65
2024/02/02 05:13:48;;;;;;;6.13;4.13;;;4.10;99.90;;;;;;2053595;28;20257;-64
2024/02/02 05:14:49;;;;;;;5.50;3.83;;;4.20;99.90;;;;;;2061238;28;20233;-65
2024/02/02 05:15:50;;;;;;;6.10;3.70;;;4.20;99.90;;;;;;2061368;28;20241;-65
2024/02/02 05:16:50;;;;;;;7.10;3.97;;;4.30;99.90;;;;;;2053315;28;20234;-64
2024/02/02 05:17:51;;;;;;;4.60;3.50;;;4.30;99.90;;;;;;2060434;28;20253;-65
2024/02/02 05:18:52;;;;;;;3.60;3.00;;;4.30;99.90;;;;;;2061644;28;20617;-65
2024/02/02 05:19:52;;;;;;;5.67;3.80;;;4.40;99.90;;;;;;2060090;28;20223;-64
2024/02/02 05:20:53;;;;;;;4.53;3.70;;;4.40;99.90;;;;;;2068522;28;20319;-64